Time;durP1;ratioP1;P1;durP2;ratioP2;P2;SDS_P1;SDS_P2;PMS_P1;PMS_P2;Temp;Humidity;BMP_temperature;BMP_pressure;BME280_temperature;BME280_humidity;BME280_pressure;Samples;Min_cycle;Max_cycle;Signal;HPM_P1;HPM_P2
2022/12/04 00:00:46;;;;;;;18.92;8.70;;;2.10;99.90;;;;;;5064610;28;20024;-74
2022/12/04 00:03:11;;;;;;;15.10;7.32;;;2.10;99.90;;;;;;5088808;28;20232;-75
2022/12/04 00:05:37;;;;;;;11.80;6.50;;;3.80;99.90;;;;;;5089787;28;20028;-75
2022/12/04 00:08:02;;;;;;;12.82;6.70;;;2.20;99.90;;;;;;5070934;28;20058;-75
2022/12/04 00:10:28;;;;;;;16.75;7.03;;;3.40;99.90;;;;;;5091120;28;20415;-74
2022/12/04 00:12:54;;;;;;;14.70;6.50;;;2.20;99.90;;;;;;5089199;28;20024;-74
2022/12/04 00:15:19;;;;;;;15.02;5.60;;;2.20;99.90;;;;;;5062155;28;20024;-74
2022/12/04 00:17:48;;;;;;;10.43;5.70;;;2.20;99.90;;;;;;5068938;28;20051;-74
2022/12/04 00:20:14;;;;;;;18.10;5.70;;;2.40;99.90;;;;;;5090436;28;20028;-74
2022/12/04 00:22:39;;;;;;;11.98;6.93;;;2.20;99.90;;;;;;5087357;28;20082;-74
2022/12/04 00:25:05;;;;;;;14.18;6.50;;;2.90;99.90;;;;;;5083232;28;20074;-74
2022/12/04 00:27:31;;;;;;;11.82;5.80;;;2.10;99.90;;;;;;5078103;28;20135;-75
2022/12/04 00:29:56;;;;;;;13.98;6.35;;;2.10;99.90;;;;;;5081369;28;20031;-76
2022/12/04 00:32:22;;;;;;;15.82;6.85;;;2.20;99.90;;;;;;5088090;28;20224;-74
2022/12/04 00:34:51;;;;;;;13.95;6.60;;;2.40;99.90;;;;;;5086881;28;20043;-74
2022/12/04 00:37:16;;;;;;;14.45;5.90;;;3.60;99.90;;;;;;5083647;28;20024;-74
2022/12/04 00:39:42;;;;;;;18.20;6.95;;;3.30;99.90;;;;;;5066999;28;20039;-75
2022/12/04 00:42:08;;;;;;;11.73;5.38;;;2.20;99.90;;;;;;5086873;28;20225;-75
2022/12/04 00:44:33;;;;;;;17.35;6.55;;;2.20;99.90;;;;;;5070475;28;20036;-75
2022/12/04 00:46:59;;;;;;;16.60;6.80;;;2.20;99.90;;;;;;5063232;28;20228;-75
2022/12/04 00:49:24;;;;;;;11.10;4.95;;;3.20;99.90;;;;;;5061724;28;20199;-75
2022/12/04 00:51:50;;;;;;;12.07;6.22;;;3.00;99.90;;;;;;5065684;28;20064;-75
2022/12/04 00:54:16;;;;;;;13.90;6.13;;;3.00;99.90;;;;;;5071949;28;20024;-76
2022/12/04 00:56:41;;;;;;;16.33;6.00;;;3.10;99.90;;;;;;5079238;28;20024;-74
2022/12/04 00:59:07;;;;;;;19.30;6.85;;;3.00;99.90;;;;;;5065132;28;20327;-74
2022/12/04 01:01:33;;;;;;;11.15;6.28;;;3.90;99.90;;;;;;5094847;28;21324;-76
2022/12/04 01:03:58;;;;;;;12.20;5.95;;;2.20;99.90;;;;;;5084743;28;20017;-74
2022/12/04 01:06:30;;;;;;;12.10;6.75;;;2.30;99.90;;;;;;5058796;28;20280;-75
2022/12/04 01:08:57;;;;;;;14.00;6.68;;;1.60;99.90;;;;;;5087845;28;20031;-74
2022/12/04 01:11:24;;;;;;;20.77;6.85;;;2.30;99.90;;;;;;5067739;28;20036;-75
2022/12/04 01:13:50;;;;;;;14.85;5.82;;;2.60;99.90;;;;;;5067582;28;20028;-75
2022/12/04 01:16:26;;;;;;;11.23;6.25;;;2.30;99.90;;;;;;5065776;28;20024;-74
2022/12/04 01:18:52;;;;;;;13.30;7.88;;;2.30;99.90;;;;;;5067455;28;20032;-74
2022/12/04 01:21:18;;;;;;;19.88;5.93;;;4.10;99.90;;;;;;5088236;28;20197;-75
2022/12/04 01:23:44;;;;;;;15.88;6.07;;;2.40;99.90;;;;;;5083341;28;20126;-74
2022/12/04 01:26:11;;;;;;;14.65;6.30;;;2.30;99.90;;;;;;5091289;28;20020;-74
2022/12/04 01:28:37;;;;;;;12.88;6.43;;;2.60;99.90;;;;;;5084587;28;20036;-74
2022/12/04 01:31:09;;;;;;;15.30;6.43;;;2.70;99.90;;;;;;5085597;28;20016;-75
2022/12/04 01:33:36;;;;;;;12.95;5.90;;;3.40;99.90;;;;;;5085942;28;20092;-75
2022/12/04 01:36:05;;;;;;;13.25;6.53;;;3.50;99.90;;;;;;5081948;28;20084;-75
2022/12/04 01:38:32;;;;;;;18.70;8.73;;;2.20;99.90;;;;;;5089307;28;20043;-76
2022/12/04 01:40:58;;;;;;;13.48;7.15;;;3.30;99.90;;;;;;5083268;28;20028;-76
2022/12/04 01:43:25;;;;;;;17.23;5.43;;;2.90;99.90;;;;;;5086438;28;20036;-75
2022/12/04 01:45:55;;;;;;;12.77;6.32;;;2.20;99.90;;;;;;5088905;28;20122;-75
2022/12/04 01:48:31;;;;;;;13.05;6.30;;;2.20;99.90;;;;;;5085052;28;20033;-74
2022/12/04 01:51:09;;;;;;;14.40;7.18;;;2.20;99.90;;;;;;5081070;28;20025;-74
2022/12/04 01:53:39;;;;;;;12.23;5.50;;;2.50;99.90;;;;;;5081735;28;20088;-75
2022/12/04 01:56:05;;;;;;;17.63;7.75;;;2.30;99.90;;;;;;5083160;28;20057;-75
2022/12/04 01:58:35;;;;;;;14.88;7.53;;;2.30;99.90;;;;;;5086836;28;20075;-74
2022/12/04 02:01:04;;;;;;;14.65;6.38;;;4.10;99.90;;;;;;5084292;28;20202;-75
2022/12/04 02:03:30;;;;;;;23.73;8.85;;;2.20;99.90;;;;;;5084545;28;20040;-75
2022/12/04 02:05:56;;;;;;;20.58;8.07;;;2.30;99.90;;;;;;5088536;28;20055;-74
2022/12/04 02:08:22;;;;;;;15.10;7.40;;;4.00;99.90;;;;;;5086080;28;20050;-74
2022/12/04 02:10:54;;;;;;;17.50;8.15;;;2.20;99.90;;;;;;5088018;28;20029;-74
2022/12/04 02:13:30;;;;;;;13.10;6.13;;;2.50;99.90;;;;;;5081934;28;20067;-74
2022/12/04 02:16:22;;;;;;;15.50;5.95;;;3.20;99.90;;;;;;5089116;28;20012;-74
2022/12/04 02:19:03;;;;;;;16.08;7.38;;;2.30;99.90;;;;;;5085093;28;20028;-74
2022/12/04 02:21:34;;;;;;;13.57;6.18;;;2.30;99.90;;;;;;5085997;28;20271;-75
2022/12/04 02:24:14;;;;;;;16.05;6.10;;;2.30;99.90;;;;;;5067885;28;20213;-75
2022/12/04 02:26:52;;;;;;;17.15;7.35;;;2.30;99.90;;;;;;5080144;28;20028;-76
2022/12/04 02:29:35;;;;;;;16.67;6.18;;;2.40;99.90;;;;;;5081151;28;20343;-75
2022/12/04 02:32:39;;;;;;;16.58;6.15;;;2.30;99.90;;;;;;5063799;28;20062;-75
2022/12/04 02:35:12;;;;;;;15.10;7.18;;;2.30;99.90;;;;;;5081533;28;20091;-75
2022/12/04 02:37:43;;;;;;;12.00;6.32;;;2.30;99.90;;;;;;5082452;28;20024;-75
2022/12/04 02:40:22;;;;;;;11.18;6.28;;;2.30;99.90;;;;;;5064180;28;20021;-75
2022/12/04 02:42:58;;;;;;;11.05;5.68;;;2.30;99.90;;;;;;5081770;28;20033;-75
2022/12/04 02:45:39;;;;;;;11.25;4.93;;;2.30;99.90;;;;;;5082150;28;20212;-75
2022/12/04 02:48:07;;;;;;;12.27;5.07;;;2.30;99.90;;;;;;5081690;28;20228;-76
2022/12/04 02:50:37;;;;;;;22.00;9.88;;;2.30;99.90;;;;;;5081985;28;20083;-74
2022/12/04 02:53:16;;;;;;;18.13;8.32;;;2.30;99.90;;;;;;5081471;28;20040;-75
2022/12/04 02:56:15;;;;;;;15.70;7.13;;;2.30;99.90;;;;;;5063917;28;20052;-75
2022/12/04 02:58:47;;;;;;;23.65;10.00;;;2.00;99.90;;;;;;5064508;28;20108;-76
2022/12/04 03:01:22;;;;;;;19.83;8.60;;;3.40;99.90;;;;;;5063643;28;20052;-76
2022/12/04 03:04:04;;;;;;;25.25;9.98;;;2.80;99.90;;;;;;5063896;28;20274;-75
2022/12/04 03:06:34;;;;;;;21.60;10.05;;;1.90;99.90;;;;;;5063642;28;20017;-75
2022/12/04 03:09:10;;;;;;;24.17;8.52;;;2.50;99.90;;;;;;5081618;28;20301;-76
2022/12/04 03:11:39;;;;;;;26.05;9.60;;;2.60;99.90;;;;;;5063516;28;20034;-76
2022/12/04 03:14:16;;;;;;;22.63;9.63;;;2.00;99.90;;;;;;5063528;28;20017;-77
2022/12/04 03:16:42;;;;;;;24.00;8.80;;;1.80;99.90;;;;;;5081755;28;20025;-76
2022/12/04 03:19:19;;;;;;;22.40;11.13;;;3.10;99.90;;;;;;5080928;28;20036;-74
2022/12/04 03:21:52;;;;;;;22.35;10.07;;;1.70;99.90;;;;;;5081496;28;20328;-74
2022/12/04 03:25:03;;;;;;;28.77;11.57;;;2.10;99.90;;;;;;5081537;28;20056;-75
2022/12/04 03:27:45;;;;;;;22.33;8.65;;;1.70;99.90;;;;;;5059229;28;20043;-75
2022/12/04 03:30:14;;;;;;;20.63;8.48;;;1.60;99.90;;;;;;5063399;28;20461;-74
2022/12/04 03:32:40;;;;;;;;;;;1.60;99.90;;;;;;5081876;28;20087;-74
2022/12/04 03:35:11;;;;;;;21.40;8.70;;;1.60;99.90;;;;;;5081460;28;19907;-75
2022/12/04 03:38:02;;;;;;;27.15;12.05;;;3.00;99.90;;;;;;5080578;28;20074;-75
2022/12/04 03:40:33;;;;;;;25.33;10.10;;;1.60;99.90;;;;;;5099749;28;20024;-75
2022/12/04 03:43:26;;;;;;;26.00;10.65;;;1.60;99.90;;;;;;5082493;28;20535;-75
2022/12/04 03:46:32;;;;;;;22.00;9.90;;;1.70;99.90;;;;;;5100342;28;20036;-75
2022/12/04 03:49:06;;;;;;;16.90;7.68;;;1.70;99.90;;;;;;5074784;28;20032;-76
2022/12/04 03:51:36;;;;;;;20.92;7.78;;;1.80;99.90;;;;;;5083008;28;20270;-75
2022/12/04 03:54:27;;;;;;;15.52;6.55;;;1.90;99.90;;;;;;5082667;28;20024;-75
2022/12/04 03:57:04;;;;;;;13.75;6.65;;;2.00;99.90;;;;;;5100728;28;20035;-75
2022/12/04 03:59:36;;;;;;;15.10;6.85;;;2.50;99.90;;;;;;5100463;28;20016;-75
2022/12/04 04:02:03;;;;;;;16.58;6.93;;;2.10;99.90;;;;;;5100464;28;20039;-76
2022/12/04 04:04:35;;;;;;;15.40;8.07;;;2.10;99.90;;;;;;5082072;28;20099;-75
2022/12/04 04:07:16;;;;;;;16.85;8.23;;;2.40;99.90;;;;;;5100328;28;20039;-75
2022/12/04 04:09:46;;;;;;;13.65;6.05;;;2.20;99.90;;;;;;5100511;28;20046;-74
2022/12/04 04:12:20;;;;;;;16.67;7.78;;;2.70;99.90;;;;;;5100209;28;20211;-74
2022/12/04 04:26:14;;;;;;;16.48;6.22;;;2.30;99.90;;;;;;5099567;28;20095;-75
2022/12/04 04:28:40;;;;;;;14.80;6.20;;;2.50;99.90;;;;;;5099327;28;20049;-75
2022/12/04 04:31:33;;;;;;;20.20;7.80;;;2.20;99.90;;;;;;5082062;28;20027;-75
2022/12/04 04:34:03;;;;;;;9.82;5.45;;;2.20;99.90;;;;;;5099807;28;20024;-74
2022/12/04 04:36:44;;;;;;;17.75;6.72;;;2.80;99.90;;;;;;5100196;28;20016;-75
2022/12/04 04:39:39;;;;;;;18.55;8.18;;;2.20;99.90;;;;;;5099521;28;20016;-75
2022/12/04 04:42:26;;;;;;;15.63;6.43;;;2.20;99.90;;;;;;5099700;28;20043;-75
2022/12/04 04:45:11;;;;;;;12.63;6.13;;;2.20;99.90;;;;;;5082296;28;20219;-74
2022/12/04 04:47:46;;;;;;;15.75;6.75;;;2.30;99.90;;;;;;5081906;28;20358;-75
2022/12/04 04:50:13;;;;;;;13.77;5.15;;;2.20;99.90;;;;;;5100171;28;20020;-75
2022/12/04 04:52:45;;;;;;;14.15;6.65;;;2.30;99.90;;;;;;5099461;28;20079;-77
2022/12/04 04:55:12;;;;;;;11.35;6.25;;;3.60;99.90;;;;;;5100226;28;20024;-75
2022/12/04 04:57:38;;;;;;;20.75;8.48;;;2.80;99.90;;;;;;5099470;28;20021;-75
2022/12/04 05:00:09;;;;;;;10.02;5.68;;;3.20;99.90;;;;;;5097426;28;20031;-75
2022/12/04 05:02:35;;;;;;;13.25;5.90;;;2.20;99.90;;;;;;5099487;28;20032;-75
2022/12/04 05:05:01;;;;;;;14.32;7.38;;;2.40;99.90;;;;;;5081716;28;20339;-75
2022/12/04 05:07:27;;;;;;;13.80;6.63;;;3.50;99.90;;;;;;5099843;28;20099;-75
2022/12/04 05:09:52;;;;;;;12.35;6.75;;;2.20;99.90;;;;;;5079458;28;20031;-75
2022/12/04 05:12:18;;;;;;;15.55;6.55;;;4.10;99.90;;;;;;5096848;28;20021;-75
2022/12/04 05:14:46;;;;;;;15.13;7.20;;;2.20;99.90;;;;;;5098539;28;20034;-74
2022/12/04 05:17:11;;;;;;;19.50;7.35;;;4.30;99.90;;;;;;5081070;28;20028;-76
2022/12/04 05:19:52;;;;;;;19.70;8.60;;;2.40;99.90;;;;;;5097702;28;20027;-75
2022/12/04 05:22:19;;;;;;;15.25;6.93;;;3.20;99.90;;;;;;5099548;28;20043;-75
2022/12/04 05:24:45;;;;;;;13.85;5.53;;;2.50;99.90;;;;;;5081825;28;20202;-76
2022/12/04 05:27:10;;;;;;;15.80;6.85;;;3.10;99.90;;;;;;5100043;28;20081;-75
2022/12/04 05:29:36;;;;;;;13.80;7.80;;;2.20;99.90;;;;;;5081924;28;20020;-75
2022/12/04 05:32:02;;;;;;;16.17;7.93;;;2.20;99.90;;;;;;5099934;28;20020;-75
2022/12/04 05:34:27;;;;;;;20.80;8.35;;;2.10;99.90;;;;;;5081181;28;20167;-75
2022/12/04 05:36:53;;;;;;;15.60;9.18;;;3.00;99.90;;;;;;5100925;28;20083;-75
2022/12/04 05:39:19;;;;;;;20.27;8.43;;;2.90;99.90;;;;;;5103481;28;20012;-75
2022/12/04 05:41:45;;;;;;;15.68;7.72;;;2.90;99.90;;;;;;5085221;28;20304;-75
2022/12/04 05:44:11;;;;;;;19.90;8.70;;;3.60;99.90;;;;;;5102841;28;20035;-76
2022/12/04 05:46:36;;;;;;;18.98;9.27;;;1.80;99.90;;;;;;5103028;28;20077;-75
2022/12/04 05:49:02;;;;;;;20.08;8.43;;;2.20;99.90;;;;;;5082672;28;20054;-76
2022/12/04 05:51:28;;;;;;;22.63;9.02;;;2.80;99.90;;;;;;5083275;28;20025;-76
2022/12/04 05:53:53;;;;;;;21.80;9.15;;;1.60;99.90;;;;;;5063519;28;20028;-76
2022/12/04 05:56:19;;;;;;;19.55;7.88;;;2.90;99.90;;;;;;5083484;28;20048;-78
2022/12/04 05:58:45;;;;;;;19.33;8.88;;;3.80;99.90;;;;;;5083682;28;20235;-76
2022/12/04 06:01:14;;;;;;;21.90;10.13;;;2.80;99.90;;;;;;5082295;28;20031;-76
2022/12/04 06:03:40;;;;;;;20.92;10.32;;;1.70;99.90;;;;;;5080882;28;20021;-78
2022/12/04 06:06:18;;;;;;;23.40;10.68;;;2.70;99.90;;;;;;5082752;28;20028;-76
2022/12/04 06:08:44;;;;;;;22.15;8.52;;;1.50;99.90;;;;;;5082923;28;20036;-76
2022/12/04 06:11:16;;;;;;;9.48;6.35;;;1.50;99.90;;;;;;5083319;28;20150;-77
2022/12/04 06:13:44;;;;;;;21.17;10.95;;;1.40;99.90;;;;;;5079110;28;20028;-77
2022/12/04 06:16:18;;;;;;;16.02;8.00;;;2.20;99.90;;;;;;5063363;28;20028;-76
2022/12/04 06:18:47;;;;;;;18.95;9.77;;;1.40;99.90;;;;;;5064826;28;20094;-76
2022/12/04 06:21:12;;;;;;;21.92;9.27;;;1.40;99.90;;;;;;5075560;28;20047;-75
2022/12/04 06:23:38;;;;;;;24.85;11.07;;;1.30;99.90;;;;;;5102474;28;20047;-76
2022/12/04 06:26:07;;;;;;;23.75;9.80;;;2.40;99.90;;;;;;5085075;28;20107;-76
2022/12/04 06:28:33;;;;;;;26.83;13.95;;;1.30;99.90;;;;;;5084702;28;20020;-75
2022/12/04 06:31:04;;;;;;;21.40;11.30;;;2.80;99.90;;;;;;5084472;28;20044;-76
2022/12/04 06:33:30;;;;;;;23.00;11.75;;;1.30;99.90;;;;;;5084517;28;20032;-75
2022/12/04 06:36:11;;;;;;;24.50;9.48;;;2.60;99.90;;;;;;5102379;28;20027;-74
2022/12/04 06:38:38;;;;;;;22.02;9.27;;;1.30;99.90;;;;;;5102664;28;20066;-74
2022/12/04 06:41:05;;;;;;;21.60;10.43;;;2.70;99.90;;;;;;5084783;28;20051;-75
2022/12/04 06:43:31;;;;;;;26.00;11.38;;;1.30;99.90;;;;;;5085185;28;20032;-75
2022/12/04 06:46:01;;;;;;;25.60;9.77;;;3.70;99.90;;;;;;5084794;28;20024;-75
2022/12/04 06:48:28;;;;;;;30.15;13.95;;;2.20;99.90;;;;;;5101436;28;20629;-75
2022/12/04 06:51:02;;;;;;;27.02;11.15;;;3.30;99.90;;;;;;5084304;28;20024;-75
2022/12/04 06:53:29;;;;;;;23.67;10.27;;;1.60;99.90;;;;;;5101822;28;20387;-76
2022/12/04 06:56:05;;;;;;;23.17;10.60;;;3.30;99.90;;;;;;5102558;28;20115;-75
2022/12/04 06:58:31;;;;;;;28.75;13.15;;;1.20;99.90;;;;;;5084437;28;20031;-75
2022/12/04 07:00:57;;;;;;;23.83;10.02;;;2.50;99.90;;;;;;5102896;28;20020;-75
2022/12/04 07:03:24;;;;;;;26.23;10.27;;;2.30;99.90;;;;;;5084628;28;20104;-75
2022/12/04 07:05:50;;;;;;;21.15;9.40;;;1.20;99.90;;;;;;5102086;28;20027;-75
2022/12/04 07:08:17;;;;;;;22.58;11.38;;;2.40;99.90;;;;;;5084159;28;20032;-76
2022/12/04 07:10:43;;;;;;;27.02;12.52;;;1.20;99.90;;;;;;5102050;28;20020;-76
2022/12/04 07:13:09;;;;;;;27.73;10.52;;;2.70;99.90;;;;;;5082479;28;20362;-76
2022/12/04 07:15:36;;;;;;;29.40;12.50;;;1.70;99.90;;;;;;5102744;28;20279;-76
2022/12/04 07:18:03;;;;;;;30.67;12.50;;;2.50;99.90;;;;;;5083085;28;20043;-74
2022/12/04 07:20:29;;;;;;;24.08;10.80;;;1.30;99.90;;;;;;5083976;28;20016;-76
2022/12/04 07:22:54;;;;;;;28.33;12.45;;;1.80;99.90;;;;;;5082693;28;20553;-77
2022/12/04 07:25:20;;;;;;;23.70;10.73;;;2.90;99.90;;;;;;5083907;28;20016;-76
2022/12/04 07:27:46;;;;;;;22.92;10.00;;;1.30;99.90;;;;;;5082734;28;20117;-76
2022/12/04 07:30:12;;;;;;;28.15;11.02;;;1.30;99.90;;;;;;5096657;28;20069;-76
2022/12/04 07:32:37;;;;;;;22.90;9.18;;;1.20;99.90;;;;;;5083570;28;20036;-75
2022/12/04 07:35:04;;;;;;;29.23;13.70;;;2.50;99.90;;;;;;5081311;28;20213;-76
2022/12/04 07:37:30;;;;;;;26.63;10.98;;;1.30;99.90;;;;;;5100776;28;20188;-76
2022/12/04 07:39:56;;;;;;;24.05;10.90;;;2.70;99.90;;;;;;5098667;28;20023;-76
2022/12/04 07:42:22;;;;;;;24.50;10.70;;;1.30;99.90;;;;;;5100773;28;20036;-77
2022/12/04 07:44:47;;;;;;;28.13;10.90;;;2.90;99.90;;;;;;5083309;28;20017;-76
2022/12/04 07:47:13;;;;;;;26.23;8.63;;;3.30;99.90;;;;;;5083526;28;20024;-75
2022/12/04 07:49:39;;;;;;;24.30;13.32;;;2.80;99.90;;;;;;5100167;28;20102;-76
2022/12/04 07:52:05;;;;;;;23.70;9.90;;;1.20;99.90;;;;;;5098897;28;20044;-76
2022/12/04 07:54:31;;;;;;;23.45;10.55;;;2.00;99.90;;;;;;5100670;28;20027;-77
2022/12/04 07:56:57;;;;;;;21.55;10.93;;;3.60;99.90;;;;;;5082656;28;20020;-75
2022/12/04 07:59:22;;;;;;;27.45;11.85;;;2.90;99.90;;;;;;5084457;28;20054;-76
2022/12/04 08:01:48;;;;;;;20.15;9.95;;;3.10;99.90;;;;;;5062855;28;20272;-76
2022/12/04 08:04:14;;;;;;;28.13;13.20;;;1.30;99.90;;;;;;5062318;28;20020;-77
2022/12/04 08:06:39;;;;;;;34.33;10.95;;;2.70;99.90;;;;;;5062976;28;20040;-75
2022/12/04 08:09:06;;;;;;;23.95;11.48;;;2.40;99.90;;;;;;5080604;28;20090;-75
2022/12/04 08:11:34;;;;;;;24.10;10.18;;;1.30;99.90;;;;;;5080387;28;20021;-76
2022/12/04 08:14:02;;;;;;;22.35;11.38;;;1.30;99.90;;;;;;5046566;28;20029;-75
2022/12/04 08:16:29;;;;;;;26.67;11.27;;;3.00;99.90;;;;;;5080494;28;20060;-75
2022/12/04 08:18:55;;;;;;;26.65;10.45;;;2.70;99.90;;;;;;5061923;28;20024;-76
2022/12/04 08:21:26;;;;;;;25.40;11.52;;;3.00;99.90;;;;;;5079711;28;20236;-75
2022/12/04 08:23:53;;;;;;;20.50;9.77;;;3.10;99.90;;;;;;5061878;28;20095;-75
2022/12/04 08:26:21;;;;;;;27.58;11.45;;;2.70;99.90;;;;;;5061383;28;20024;-77
2022/12/04 08:28:47;;;;;;;25.05;11.13;;;1.60;99.90;;;;;;5082168;28;20047;-76
2022/12/04 08:31:17;;;;;;;22.20;10.27;;;1.50;99.90;;;;;;5077530;28;20028;-76
2022/12/04 08:33:44;;;;;;;25.38;11.85;;;1.60;99.90;;;;;;5062580;28;20016;-77
2022/12/04 08:36:15;;;;;;;31.60;12.70;;;1.50;99.90;;;;;;5079981;28;20062;-76
2022/12/04 08:38:41;;;;;;;21.42;10.20;;;1.50;99.90;;;;;;5064630;28;20048;-76
2022/12/04 08:41:09;;;;;;;26.85;12.25;;;1.60;99.90;;;;;;5082406;28;20028;-77
2022/12/04 08:43:35;;;;;;;21.40;10.13;;;1.90;99.90;;;;;;5100760;28;20027;-76
2022/12/04 08:46:03;;;;;;;22.27;9.93;;;2.20;99.90;;;;;;5090645;28;20707;-76
2022/12/04 08:48:30;;;;;;;25.10;8.63;;;1.60;99.90;;;;;;5097174;28;20023;-77
2022/12/04 08:50:56;;;;;;;25.05;9.85;;;3.30;99.90;;;;;;5100295;28;20428;-76
2022/12/04 08:53:22;;;;;;;27.35;11.27;;;2.50;99.90;;;;;;5082079;28;20093;-75
2022/12/04 08:55:48;;;;;;;21.90;10.75;;;2.90;99.90;;;;;;5081449;28;20028;-76
2022/12/04 08:58:14;;;;;;;23.33;10.80;;;2.20;99.90;;;;;;5099971;28;20020;-76
2022/12/04 09:00:40;;;;;;;27.02;11.30;;;1.90;99.90;;;;;;5100181;28;20035;-75
2022/12/04 09:03:06;;;;;;;33.35;11.45;;;2.40;99.90;;;;;;5069535;28;20033;-75
2022/12/04 09:05:32;;;;;;;22.27;10.48;;;;;;;;;;5060874;28;20340;-76
2022/12/04 09:07:57;;;;;;;19.83;10.88;;;1.90;99.90;;;;;;5061219;28;20035;-76
2022/12/04 09:10:23;;;;;;;20.92;10.45;;;2.90;99.90;;;;;;5062232;28;20024;-76
2022/12/04 09:12:49;;;;;;;22.70;12.18;;;;;;;;;;5083360;28;20043;-76
2022/12/04 09:15:15;;;;;;;32.10;11.65;;;1.90;99.90;;;;;;5065525;28;20095;-76
2022/12/04 09:17:41;;;;;;;21.90;11.90;;;;;;;;;;5065418;28;20028;-76
2022/12/04 09:20:08;;;;;;;19.42;10.30;;;1.80;99.90;;;;;;5065336;28;20042;-76
2022/12/04 09:22:35;;;;;;;23.33;11.95;;;1.80;99.90;;;;;;5083742;28;20043;-76
2022/12/04 09:25:02;;;;;;;27.45;11.27;;;1.80;99.90;;;;;;5065392;28;20312;-75
2022/12/04 09:27:28;;;;;;;24.17;11.13;;;1.90;99.90;;;;;;5082563;28;20208;-76
2022/12/04 09:29:53;;;;;;;30.17;12.05;;;2.10;99.90;;;;;;5083421;28;20016;-76
2022/12/04 09:32:19;;;;;;;26.40;10.43;;;2.80;99.90;;;;;;5083925;28;20025;-75
2022/12/04 09:34:46;;;;;;;21.95;10.65;;;3.00;99.90;;;;;;5074423;28;20443;-75
2022/12/04 09:37:13;;;;;;;19.63;9.05;;;2.10;99.90;;;;;;5052983;28;20020;-76
2022/12/04 09:39:38;;;;;;;21.08;9.73;;;2.10;99.90;;;;;;5053141;28;20032;-76
2022/12/04 09:42:29;;;;;;;23.75;11.45;;;2.10;99.90;;;;;;5071721;28;20484;-76
2022/12/04 09:45:02;;;;;;;22.77;9.35;;;2.10;99.90;;;;;;5072382;28;20044;-77
2022/12/04 09:47:41;;;;;;;15.77;8.05;;;2.10;99.90;;;;;;5058190;28;20089;-76
2022/12/04 09:50:18;;;;;;;24.00;11.30;;;2.80;99.90;;;;;;5062396;28;20055;-75
2022/12/04 09:52:58;;;;;;;18.33;9.25;;;2.10;99.90;;;;;;5054465;28;20525;-76
2022/12/04 09:55:38;;;;;;;17.48;9.32;;;2.20;99.90;;;;;;5053771;28;20031;-76
2022/12/04 09:58:10;;;;;;;21.70;11.32;;;2.30;99.90;;;;;;5052590;28;20029;-75
2022/12/04 10:00:40;;;;;;;16.38;9.05;;;2.20;99.90;;;;;;5070543;28;20112;-75
2022/12/04 10:03:11;;;;;;;20.77;8.20;;;3.00;99.90;;;;;;5052692;28;20063;-76
2022/12/04 10:05:52;;;;;;;22.77;9.20;;;2.70;99.90;;;;;;5061158;28;20217;-76
2022/12/04 10:08:27;;;;;;;16.42;8.48;;;2.90;99.90;;;;;;5059565;28;20028;-76
2022/12/04 10:11:15;;;;;;;25.88;9.80;;;3.50;99.90;;;;;;5073649;28;20027;-75
2022/12/04 10:13:41;;;;;;;26.23;9.98;;;;;;;;;;5072025;28;20531;-76
2022/12/04 10:16:29;;;;;;;24.40;13.00;;;2.10;99.90;;;;;;5092950;28;20036;-75
2022/12/04 10:19:13;;;;;;;26.15;10.90;;;2.10;99.90;;;;;;5092717;28;20104;-76
2022/12/04 10:22:15;;;;;;;20.70;9.52;;;2.10;99.90;;;;;;5091296;28;20036;-76
2022/12/04 10:24:41;;;;;;;23.20;9.70;;;;;;;;;;5081498;28;20103;-76
2022/12/04 10:27:22;;;;;;;20.05;9.65;;;2.20;99.90;;;;;;5077503;28;20031;-76
2022/12/04 10:30:00;;;;;;;22.08;10.48;;;3.10;99.90;;;;;;5060009;28;20016;-77
2022/12/04 10:32:30;;;;;;;25.85;10.75;;;2.20;99.90;;;;;;5074954;28;20025;-77
2022/12/04 10:35:04;;;;;;;22.17;8.43;;;2.20;99.90;;;;;;5074813;28;20473;-76
2022/12/04 10:37:36;;;;;;;20.75;9.40;;;4.00;99.90;;;;;;5092161;28;20033;-77
2022/12/04 10:40:20;;;;;;;27.63;13.98;;;2.30;99.90;;;;;;5074389;28;20158;-76
2022/12/04 10:42:59;;;;;;;22.83;11.35;;;2.30;99.90;;;;;;5066099;28;20119;-75
2022/12/04 10:45:25;;;;;;;;;;;2.30;99.90;;;;;;5066260;28;20388;-75
2022/12/04 10:47:52;;;;;;;25.27;10.10;;;3.50;99.90;;;;;;5074681;28;19905;-76
2022/12/04 10:50:20;;;;;;;21.50;10.75;;;3.90;99.90;;;;;;5061554;28;20104;-76
2022/12/04 10:52:46;;;;;;;22.13;9.32;;;2.40;99.90;;;;;;5074694;28;20362;-76
2022/12/04 10:55:15;;;;;;;28.55;11.00;;;2.30;99.90;;;;;;5074994;28;20032;-77
2022/12/04 10:57:44;;;;;;;19.75;10.80;;;2.20;99.90;;;;;;5053913;28;20020;-75
2022/12/04 11:00:33;;;;;;;20.50;11.13;;;2.10;99.90;;;;;;5061231;28;20109;-75
2022/12/04 11:03:08;;;;;;;19.65;10.80;;;2.10;99.90;;;;;;5057389;28;20627;-76
2022/12/04 11:05:42;;;;;;;25.02;13.30;;;2.10;99.90;;;;;;5080499;28;20020;-77
2022/12/04 11:08:23;;;;;;;25.58;12.35;;;2.10;99.90;;;;;;5072144;28;20434;-76
2022/12/04 11:10:58;;;;;;;29.60;12.70;;;2.00;99.90;;;;;;5053943;28;20029;-75
2022/12/04 11:13:24;;;;;;;27.13;12.60;;;;;;;;;;5066189;28;20029;-75
2022/12/04 11:15:53;;;;;;;34.88;12.85;;;1.90;99.90;;;;;;5061802;28;20051;-74
2022/12/04 11:18:20;;;;;;;20.85;10.60;;;1.90;99.90;;;;;;5086995;28;20483;-76
2022/12/04 11:20:58;;;;;;;31.08;13.77;;;1.90;99.90;;;;;;5070614;28;20028;-75
2022/12/04 11:23:24;;;;;;;25.25;14.57;;;;;;;;;;5076128;28;20060;-75
2022/12/04 11:25:53;;;;;;;27.42;12.63;;;2.00;99.90;;;;;;5075406;28;20073;-76
2022/12/04 11:28:22;;;;;;;28.40;12.52;;;1.90;99.90;;;;;;5064549;28;20111;-75
2022/12/04 11:30:51;;;;;;;27.25;12.35;;;2.20;99.90;;;;;;5096913;28;20020;-76
2022/12/04 11:33:43;;;;;;;27.90;12.13;;;2.00;99.90;;;;;;5065489;28;20110;-76
2022/12/04 11:36:19;;;;;;;29.30;11.35;;;2.10;99.90;;;;;;5084951;28;20074;-76
2022/12/04 11:38:45;;;;;;;46.42;13.55;;;;;;;;;;5054371;28;20029;-76
2022/12/04 11:41:27;;;;;;;29.80;12.27;;;1.70;99.90;;;;;;5087164;28;20032;-75
2022/12/04 11:43:54;;;;;;;26.73;12.45;;;1.80;99.90;;;;;;5078886;28;20067;-75
2022/12/04 11:46:22;;;;;;;23.67;11.85;;;3.00;99.90;;;;;;5064418;28;20384;-76
2022/12/04 11:48:48;;;;;;;28.65;11.38;;;3.20;99.90;;;;;;5076175;28;20032;-75
2022/12/04 11:51:35;;;;;;;26.23;10.73;;;1.90;99.90;;;;;;5070956;28;20020;-76
2022/12/04 11:54:34;;;;;;;33.10;11.15;;;1.70;99.90;;;;;;5080890;28;20102;-76
2022/12/04 11:57:09;;;;;;;23.63;10.30;;;1.80;99.90;;;;;;5070580;28;20217;-76
2022/12/04 11:59:54;;;;;;;30.40;13.70;;;1.70;99.90;;;;;;5070301;28;20040;-76
2022/12/04 12:02:57;;;;;;;26.30;11.80;;;1.70;99.90;;;;;;5087427;28;20039;-76
2022/12/04 12:06:00;;;;;;;26.25;11.30;;;1.70;99.90;;;;;;5074277;28;20275;-75
2022/12/04 12:08:47;;;;;;;30.75;14.18;;;1.70;99.90;;;;;;5075372;28;20060;-76
2022/12/04 12:22:44;;;;;;;28.40;11.88;;;1.90;99.90;;;;;;5178173;27;20367;-75
2022/12/04 12:25:35;;;;;;;22.92;9.88;;;1.70;99.90;;;;;;5149013;27;20031;-76
2022/12/04 12:28:14;;;;;;;24.80;11.52;;;1.80;99.90;;;;;;5134839;27;20673;-76
2022/12/04 12:30:48;;;;;;;17.13;9.23;;;1.80;99.90;;;;;;5146615;27;20031;-75
2022/12/04 12:33:18;;;;;;;22.77;11.82;;;1.70;99.90;;;;;;5149728;27;20055;-75
2022/12/04 12:36:07;;;;;;;22.38;9.80;;;2.30;99.90;;;;;;5148433;27;20101;-76
2022/12/04 12:38:38;;;;;;;24.33;10.40;;;1.70;99.90;;;;;;5148625;27;20383;-76
2022/12/04 12:41:11;;;;;;;27.48;12.90;;;1.60;99.90;;;;;;5147046;27;20030;-76
2022/12/04 12:43:38;;;;;;;20.13;11.23;;;1.60;99.90;;;;;;5145895;27;20034;-75
2022/12/04 12:46:18;;;;;;;25.35;10.43;;;2.40;99.90;;;;;;5144396;27;20023;-75
2022/12/04 12:48:56;;;;;;;23.23;11.10;;;1.70;99.90;;;;;;5146303;27;20027;-75
2022/12/04 12:51:33;;;;;;;22.33;10.73;;;1.70;99.90;;;;;;5148924;27;20049;-74
2022/12/04 12:54:27;;;;;;;20.50;11.27;;;1.70;99.90;;;;;;5146627;27;20027;-75
2022/12/04 12:56:59;;;;;;;23.05;10.65;;;1.80;99.90;;;;;;5145419;27;20019;-75
2022/12/04 12:59:26;;;;;;;20.92;8.88;;;1.70;99.90;;;;;;5144210;27;20023;-75
2022/12/04 13:02:21;;;;;;;20.17;10.13;;;2.50;99.90;;;;;;5144216;27;20390;-75
2022/12/04 13:04:54;;;;;;;24.42;10.35;;;1.70;99.90;;;;;;5139881;27;20133;-75
2022/12/04 13:08:00;;;;;;;22.23;8.70;;;1.70;99.90;;;;;;5144331;27;20027;-74
2022/12/04 13:10:35;;;;;;;25.67;8.63;;;1.60;99.90;;;;;;5081251;28;20039;-75
2022/12/04 13:13:11;;;;;;;31.02;11.27;;;1.80;99.90;;;;;;5135586;27;20091;-76
2022/12/04 13:15:50;;;;;;;24.60;10.40;;;2.20;99.90;;;;;;5142571;27;20054;-74
2022/12/04 13:18:29;;;;;;;21.92;11.65;;;2.00;99.90;;;;;;5144494;27;20395;-75
2022/12/04 13:20:59;;;;;;;25.73;11.98;;;2.00;99.90;;;;;;5150778;27;20631;-75
2022/12/04 13:23:33;;;;;;;;;;;3.30;99.90;;;;;;5129702;27;20805;-74
2022/12/04 13:26:09;;;;;;;19.77;8.70;;;1.80;99.90;;;;;;5131460;27;19929;-76
2022/12/04 13:28:49;;;;;;;26.55;9.43;;;1.70;99.90;;;;;;5149929;27;20019;-76
2022/12/04 13:31:36;;;;;;;23.00;11.52;;;1.70;99.90;;;;;;5131195;27;20482;-76